Elton, WI

7:27 AM CDT on July 30, 2014 (GMT -0500)
Langlade County (KAIG) Elev 1522 ft | 45.16 °N, 89.11 °W | Change Station
Active Advisory: Special Statement

Current weather conditions updated 12 minutes ago

Clear
Clear
51 °F
Feels Like 51 °F
N
4
Wind Variable Wind from NW

Today is forecast to be nearly the same temperature as yesterday.

Today
High -- | Low -- °F
--% Chance of Precip.
Yesterday
High -- | Low -- °F
Precip. -- in
5:38 AM 8:25 PM
Waxing Crescent, 11% visible
Pressure 30.08 in
Visibility 10.0 miles
Clouds Clear
Dew Point 51 °F
Humidity 99%
Rainfall 0.00 in
Snow Depth Not available.
UV 1 out of 12
Pollen 7.30 out of 12
Air Quality Not available.
Flu Activity Not available.
METAR KAIG 301215Z AUTO 31003KT 10SM CLR 11/11 A3008 RMK AO2 T01080107

More Conditions Fewer Conditions

Pressure 30.08 in
Visibility 10.0 miles
Clouds Clear
Dew Point 51 °F
Humidity 99%
Rainfall 0.00 in
Snow Depth Not available.
UV 1 out of 12
Pollen 7.30 out of 12
Air Quality Not available.
Flu Activity Not available.
METAR KAIG 301215Z AUTO 31003KT 10SM CLR 11/11 A3008 RMK AO2 T01080107

More Conditions Fewer Conditions

10-Day Weather Forecast

Almanac

Astronomy

Jul. 30, 2014 Rise Set
Actual Time 5:38 AM CDT 8:25 PM CDT
Civil Twilight 5:04 AM CDT 8:59 PM CDT
Nautical Twilight 4:20 AM CDT 9:42 PM CDT
Astronomical Twilight 3:30 AM CDT 10:32 PM CDT
Moon 9:21 AM CDT 9:54 PM CDT
Length of Visible Light 15h 54m
Length of Day
14h 46m
Tomorrow will be 2m 23s shorter.
Waxing Crescent, 11% of the Moon is Illuminated
Today
Waxing Crescent
Aug 3
First Quarter
Aug 10
Full
Aug 17
Last Quarter
Aug 25
New

Today's Extremes

State Highs State Lows

Community

WunderPhotos

Upload Photos

1,739,054 photos uploaded!

Nearby

Snow Depth

Station Depth Elevation
No new snow has been reported.

Earthquake Activity

City Distance Mag. Time & Date
No recent earthquake activity has been reported nearby.
Minimum magnitude displayed is 2.5.

Coastal Water Temperatures

Place Temperature
No Stations Reporting

Nearby Weather Stations

Station Location Temp. Windchill Dew Point Humidity Wind Precip. Elev Updated Type
Mountain, Mountain, WI 55.4 °F - 52 °F 89% WNW  at  3.0 mph 0.00 in / hr 925 ft 7:27 AM CDT Rapid Fire
Lakewood, WI 52.8 °F - 49 °F 88% NNW  at  0.0 mph 0.00 in / hr 1219 ft 7:00 AM CDT Normal
RAWS LAONA WI, Wabeno, WI 38 °F 38 °F 37 °F 98% North  at  0 mph 0.00 in / hr 1560 ft 6:01 AM CDT MADIS
Pine Ridge Lake, Lakewood, WI 52.4 °F - 51 °F 94% West  at  0.0 mph 0.00 in / hr 1266 ft 7:21 AM CDT Normal

Show More Stations Show Fewer Stations